Portoroz, Slovenia

5:33 PM CEST on August 31, 2016 (GMT +0200)
Belveder_Jagodje | | Change Station

Elev 67 ft 45.53 °N, 13.64 °E | Updated 2 seconds ago

Clear
Clear
82.6 °F
Feels Like 82 °F
N
4.9
Wind Variable Wind from WNW
Gusts 7.4 mph

Today
High -- | Low -- °F
--% Chance of Precip.
Yesterday
High -- | Low -- °F
Precip. -- in
Pressure 30.06 in
Visibility -9999.0 miles
Clouds
Heat Index 82 °F
Dew Point 53 °F
Humidity 36%
Rainfall 0.00 in
Snow Depth Not available.
6:26 AM 7:44 PM
Waning Crescent, 1% visible
METAR LIPQ 311520Z 05005KT CAVOK 31/13 Q1018
Pressure 30.06 in
Visibility -9999.0 miles
Clouds
Heat Index 82 °F
Dew Point 53 °F
Humidity 36%
Rainfall 0.00 in
Snow Depth Not available.
6:26 AM 7:44 PM
Waning Crescent, 1% visible
METAR LIPQ 311520Z 05005KT CAVOK 31/13 Q1018

10-Day Weather Forecast

×

Almanac

Astronomy

Aug. 31, 2016 Rise Set
Actual Time
Civil Twilight
Nautical Twilight
Astronomical Twilight
Moon
Length of Visible Light
Length of Day
Tomorrow will be .
, % of the Moon is Illuminated

Today's Extremes

Country Highs Country Lows

Community

WunderPhotos

Upload Photos

1,936,098 photos uploaded!

WunderBlog® & News

Nearby

Air Quality

  Air Quality AQ Index Pollutant
Not available.

Snow Depth

Station Depth Elevation

Earthquake Activity

City Distance Mag. Time & Date
Minimum magnitude displayed is 2.5.

Coastal Water Temperatures

Place Temperature

Stations

Nearby Weather Stations

Station Location Temp. Windchill Dew Point Humidity Wind Precip. Elev Updated Type